createdAt,value
2022-12-18T00:00:34.516Z,-2.78
2022-12-18T00:01:34.796Z,-2.73
2022-12-18T00:02:35.988Z,-2.7
2022-12-18T00:03:37.318Z,-2.72
2022-12-18T00:04:36.580Z,-2.73
2022-12-18T00:05:37.233Z,-2.76
2022-12-18T00:06:37.864Z,-2.8
2022-12-18T00:07:38.440Z,-2.72
2022-12-18T00:08:38.636Z,-2.72
2022-12-18T00:09:46.107Z,-2.72
2022-12-18T00:10:38.995Z,-2.8
2022-12-18T00:11:39.483Z,-2.76
2022-12-18T00:12:40.400Z,-2.76
2022-12-18T00:13:42.007Z,-2.7
2022-12-18T00:14:42.154Z,-2.78
2022-12-18T00:15:41.067Z,-2.81
2022-12-18T00:16:41.113Z,-2.8
2022-12-18T00:17:41.612Z,-2.78
2022-12-18T00:18:43.211Z,-2.81
2022-12-18T00:19:43.117Z,-2.76
2022-12-18T00:20:43.327Z,-2.86
2022-12-18T00:21:44.507Z,-2.8
2022-12-18T00:22:44.646Z,-2.83
2022-12-18T00:23:46.475Z,-2.84
2022-12-18T00:24:46.694Z,-2.81
2022-12-18T00:25:47.904Z,-2.8
2022-12-18T00:26:47.514Z,-2.87
2022-12-18T00:27:48.813Z,-2.83
2022-12-18T00:28:48.998Z,-2.73
2022-12-18T00:29:49.210Z,-2.87
2022-12-18T00:30:49.506Z,-2.94
2022-12-18T00:31:50.115Z,-2.93
2022-12-18T00:32:49.604Z,-2.91
2022-12-18T00:33:55.601Z,-2.91
2022-12-18T00:34:50.947Z,-2.94
2022-12-18T00:35:51.857Z,-2.94
2022-12-18T00:36:52.241Z,-2.98
2022-12-18T00:37:52.611Z,-2.96
2022-12-18T00:38:52.825Z,-2.94
2022-12-18T00:39:53.738Z,-2.91
2022-12-18T00:40:54.069Z,-2.87
2022-12-18T00:41:54.997Z,-2.86
2022-12-18T00:42:56.202Z,-2.8
2022-12-18T00:43:57.117Z,-2.73
2022-12-18T00:44:57.297Z,-2.81
2022-12-18T00:45:58.205Z,-2.68
2022-12-18T00:46:57.992Z,-2.83
2022-12-18T00:47:58.646Z,-2.73
2022-12-18T00:48:59.717Z,-2.63
2022-12-18T00:50:00.066Z,-2.68
2022-12-18T00:51:01.265Z,-2.51
2022-12-18T00:52:01.178Z,-2.63
2022-12-18T00:53:01.833Z,-2.68
2022-12-18T00:54:02.483Z,-2.61
2022-12-18T00:55:06.953Z,-2.69
2022-12-18T00:56:03.569Z,-2.66
2022-12-18T00:57:03.772Z,-2.63
2022-12-18T00:58:04.768Z,-2.65
2022-12-18T00:59:05.383Z,-2.65
2022-12-18T01:00:05.061Z,-2.66
2022-12-18T01:01:06.524Z,-2.62
2022-12-18T01:02:07.050Z,-2.57
2022-12-18T01:03:07.771Z,-2.65
2022-12-18T01:04:08.486Z,-2.62
2022-12-18T01:05:08.389Z,-2.66
2022-12-18T01:06:09.299Z,-2.57
2022-12-18T01:07:10.999Z,-2.65
2022-12-18T01:08:10.005Z,-2.65
2022-12-18T01:09:09.927Z,-2.5
2022-12-18T01:10:10.827Z,-2.65
2022-12-18T01:11:11.746Z,-2.62
2022-12-18T01:12:11.625Z,-2.65
2022-12-18T01:13:12.505Z,-2.52
2022-12-18T01:14:13.713Z,-2.55
2022-12-18T01:15:14.300Z,-2.57
2022-12-18T01:16:15.484Z,-2.57
2022-12-18T01:17:16.059Z,-2.52
2022-12-18T01:18:16.489Z,-2.52
2022-12-18T01:19:18.126Z,-2.51
2022-12-18T01:20:19.741Z,-2.51
2022-12-18T01:21:18.414Z,-2.48
2022-12-18T01:22:19.677Z,-2.55
2022-12-18T01:23:20.605Z,-2.48
2022-12-18T01:24:21.089Z,-2.5
2022-12-18T01:25:20.976Z,-2.52
2022-12-18T01:26:21.691Z,-2.61
2022-12-18T01:27:22.603Z,-2.52
2022-12-18T01:28:23.891Z,-2.65
2022-12-18T01:29:24.202Z,-2.61
2022-12-18T01:30:25.084Z,-2.63
2022-12-18T01:31:25.476Z,-2.66
2022-12-18T01:32:26.166Z,-2.78
2022-12-18T01:33:26.775Z,-2.75
2022-12-18T01:34:27.494Z,-2.73
2022-12-18T01:35:28.009Z,-2.76
2022-12-18T01:36:27.933Z,-2.84
2022-12-18T01:37:28.844Z,-2.93
2022-12-18T01:38:29.522Z,-2.93
2022-12-18T01:39:30.144Z,-2.96
2022-12-18T01:40:31.049Z,-2.93
2022-12-18T01:41:31.954Z,-2.98
2022-12-18T01:42:32.605Z,-2.91
2022-12-18T01:43:32.936Z,-2.98
2022-12-18T01:44:33.514Z,-2.94
2022-12-18T01:45:34.555Z,-2.98
2022-12-18T01:46:34.345Z,-2.94
2022-12-18T01:47:35.270Z,-2.96
2022-12-18T01:48:35.953Z,-3.04
2022-12-18T01:49:37.155Z,-3.08
2022-12-18T01:50:36.886Z,-3.04
2022-12-18T01:51:38.180Z,-2.99
2022-12-18T01:52:37.791Z,-2.99
2022-12-18T01:53:39.567Z,-2.96
2022-12-18T01:54:39.944Z,-3.05
2022-12-18T01:55:40.562Z,-3.14
2022-12-18T01:56:41.770Z,-3.19
2022-12-18T01:57:42.392Z,-3.26
2022-12-18T01:58:43.387Z,-3.2
2022-12-18T01:59:45.183Z,-3.2
2022-12-18T02:00:45.963Z,-3.26
2022-12-18T02:01:47.312Z,-3.22
2022-12-18T02:02:47.019Z,-3.23
2022-12-18T02:03:47.557Z,-3.2
2022-12-18T02:04:54.873Z,-3.2
2022-12-18T02:05:48.184Z,-3.2
2022-12-18T02:06:49.496Z,-3.23
2022-12-18T02:07:50.234Z,-3.15
2022-12-18T02:08:50.702Z,-3.15
2022-12-18T02:09:51.593Z,-3.19
2022-12-18T02:10:51.484Z,-3.11
2022-12-18T02:11:51.805Z,-3.14
2022-12-18T02:12:53.330Z,-3.14
2022-12-18T02:13:53.749Z,-3.23
2022-12-18T02:14:54.327Z,-3.23
2022-12-18T02:15:55.532Z,-3.2
2022-12-18T02:16:55.654Z,-3.17
2022-12-18T02:17:56.439Z,-3.37
2022-12-18T02:18:56.673Z,-3.36
2022-12-18T02:19:57.004Z,-3.3
2022-12-18T02:20:57.612Z,-3.29
2022-12-18T02:21:57.817Z,-3.27
2022-12-18T02:22:58.703Z,-3.25
2022-12-18T02:23:58.903Z,-3.26
2022-12-18T02:25:00.108Z,-3.27
2022-12-18T02:26:00.320Z,-3.3
2022-12-18T02:27:00.936Z,-3.33
2022-12-18T02:28:02.138Z,-3.44
2022-12-18T02:29:01.624Z,-3.43
2022-12-18T02:30:04.700Z,-3.38
2022-12-18T02:31:03.538Z,-3.4
2022-12-18T02:32:03.044Z,-3.41
2022-12-18T02:33:03.928Z,-3.37
2022-12-18T02:34:04.575Z,-3.32
2022-12-18T02:35:06.070Z,-3.37
2022-12-18T02:36:06.260Z,-3.25
2022-12-18T02:37:06.227Z,-3.3
2022-12-18T02:38:07.160Z,-3.36
2022-12-18T02:39:09.427Z,-3.32
2022-12-18T02:40:08.371Z,-3.2
2022-12-18T02:41:08.973Z,-3.44
2022-12-18T02:42:09.299Z,-3.4
2022-12-18T02:43:10.889Z,-3.36
2022-12-18T02:44:10.593Z,-3.41
2022-12-18T02:45:10.522Z,-3.43
2022-12-18T02:46:11.631Z,-3.41
2022-12-18T02:47:11.158Z,-3.37
2022-12-18T02:48:12.656Z,-3.38
2022-12-18T02:49:12.934Z,-3.3
2022-12-18T02:50:12.557Z,-3.32
2022-12-18T02:51:13.433Z,-3.27
2022-12-18T02:52:14.793Z,-3.36
2022-12-18T02:53:14.894Z,-3.47
2022-12-18T02:54:15.799Z,-3.41
2022-12-18T02:55:15.692Z,-3.48
2022-12-18T02:56:16.883Z,-3.5
2022-12-18T02:57:17.788Z,-3.65
2022-12-18T02:58:18.312Z,-3.66
2022-12-18T02:59:18.284Z,-3.75
2022-12-18T03:00:18.911Z,-3.71
2022-12-18T03:01:20.678Z,-3.8
2022-12-18T03:02:21.058Z,-3.78
2022-12-18T03:03:20.651Z,-3.66
2022-12-18T03:04:20.777Z,-3.74
2022-12-18T03:05:21.953Z,-3.68
2022-12-18T03:06:22.142Z,-3.55
2022-12-18T03:07:22.046Z,-3.65
2022-12-18T03:08:23.234Z,-3.62
2022-12-18T03:09:23.942Z,-3.56
2022-12-18T03:10:24.855Z,-3.56
2022-12-18T03:11:24.765Z,-3.59
2022-12-18T03:12:26.245Z,-3.74
2022-12-18T03:13:27.224Z,-3.8
2022-12-18T03:14:27.275Z,-3.81
2022-12-18T03:15:28.187Z,-3.77
2022-12-18T03:16:28.571Z,-3.81
2022-12-18T03:17:28.992Z,-3.91
2022-12-18T03:18:29.613Z,-3.99
2022-12-18T03:19:30.131Z,-4.02
2022-12-18T03:20:31.652Z,-4.02
2022-12-18T03:21:30.855Z,-3.91
2022-12-18T03:22:31.182Z,-4.04
2022-12-18T03:23:32.556Z,-4.02
2022-12-18T03:24:31.895Z,-4.09
2022-12-18T03:25:33.377Z,-4.17
2022-12-18T03:26:33.302Z,-4.16
2022-12-18T03:27:33.783Z,-4.09
2022-12-18T03:28:34.331Z,-4.26
2022-12-18T03:29:34.918Z,-4.12
2022-12-18T03:30:35.621Z,-4.16
2022-12-18T03:31:35.812Z,-4.16
2022-12-18T03:32:36.771Z,-4.08
2022-12-18T03:33:37.066Z,-4.12
2022-12-18T03:34:37.013Z,-4.13
2022-12-18T03:35:37.920Z,-4.17
2022-12-18T03:36:39.105Z,-4.13
2022-12-18T03:37:39.503Z,-4.16
2022-12-18T03:38:39.457Z,-4.24
2022-12-18T03:39:40.554Z,-4.16
2022-12-18T03:40:40.767Z,-4.2
2022-12-18T03:41:40.374Z,-4.23
2022-12-18T03:42:42.093Z,-4.27
2022-12-18T03:43:48.910Z,-4.22
2022-12-18T03:44:43.437Z,-4.17
2022-12-18T03:45:44.167Z,-4.13
2022-12-18T03:46:44.470Z,-4.13
2022-12-18T03:47:44.925Z,-4.2
2022-12-18T03:48:46.705Z,-4.12
2022-12-18T03:49:47.081Z,-4.04
2022-12-18T03:50:47.691Z,-4.02
2022-12-18T03:51:47.871Z,-4.02
2022-12-18T03:52:48.481Z,-4.08
2022-12-18T03:53:49.337Z,-4.09
2022-12-18T03:54:49.820Z,-3.99
2022-12-18T03:55:50.456Z,-4.04
2022-12-18T03:56:51.658Z,-4.01
2022-12-18T03:57:51.562Z,-4.12
2022-12-18T03:58:53.397Z,-4.04
2022-12-18T03:59:53.100Z,-4.05
2022-12-18T04:00:54.020Z,-3.96
2022-12-18T04:01:54.609Z,-4.02
2022-12-18T04:02:54.795Z,-3.95
2022-12-18T04:03:56.207Z,-4.02
2022-12-18T04:04:56.727Z,-4.02
2022-12-18T04:05:56.391Z,-4.04
2022-12-18T04:06:57.281Z,-3.99
2022-12-18T04:07:58.191Z,-3.99
2022-12-18T04:08:58.373Z,-4.17
2022-12-18T04:09:59.008Z,-4.16
2022-12-18T04:10:59.911Z,-4.17
2022-12-18T04:12:00.834Z,-4.16
2022-12-18T04:13:01.184Z,-4.24
2022-12-18T04:14:07.279Z,-4.38
2022-12-18T04:15:01.830Z,-4.35
2022-12-18T04:16:02.232Z,-4.47
2022-12-18T04:17:02.266Z,-4.61
2022-12-18T04:18:03.531Z,-4.62
2022-12-18T04:19:03.720Z,-4.55
2022-12-18T04:20:03.588Z,-4.62
2022-12-18T04:21:04.484Z,-4.53
2022-12-18T04:22:05.648Z,-4.63
2022-12-18T04:23:05.834Z,-4.58
2022-12-18T04:24:06.042Z,-4.59
2022-12-18T04:25:06.236Z,-4.58
2022-12-18T04:26:07.137Z,-4.71
2022-12-18T04:27:07.464Z,-4.69
2022-12-18T04:28:08.376Z,-4.73
2022-12-18T04:29:08.674Z,-4.77
2022-12-18T04:30:09.583Z,-4.71
2022-12-18T04:31:10.186Z,-4.9
2022-12-18T04:32:10.963Z,-4.84
2022-12-18T04:33:11.268Z,-4.9
2022-12-18T04:34:12.291Z,-4.98
2022-12-18T04:35:12.502Z,-4.91
2022-12-18T04:36:13.430Z,-5.08
2022-12-18T04:37:14.088Z,-5.01
2022-12-18T04:38:15.417Z,-4.9
2022-12-18T04:39:16.028Z,-5.09
2022-12-18T04:40:16.699Z,-4.94
2022-12-18T04:41:16.879Z,-4.9
2022-12-18T04:42:17.804Z,-5.01
2022-12-18T04:43:18.961Z,-5.01
2022-12-18T04:44:19.783Z,-5
2022-12-18T04:45:19.788Z,-4.9
2022-12-18T04:46:20.410Z,-4.98
2022-12-18T04:47:20.578Z,-4.87
2022-12-18T04:48:21.479Z,-4.95
2022-12-18T04:49:22.071Z,-4.9
2022-12-18T04:50:22.466Z,-4.92
2022-12-18T04:51:27.174Z,-4.88
2022-12-18T04:52:23.408Z,-4.79
2022-12-18T04:53:23.887Z,-4.74
2022-12-18T04:54:24.804Z,-4.73
2022-12-18T04:55:25.420Z,-4.76
2022-12-18T04:56:25.902Z,-4.73
2022-12-18T04:57:26.099Z,-4.76
2022-12-18T04:58:26.734Z,-4.74
2022-12-18T04:59:27.887Z,-4.8
2022-12-18T05:00:28.698Z,-4.81
2022-12-18T05:01:35.336Z,-4.87
2022-12-18T05:02:29.967Z,-4.87
2022-12-18T05:03:30.593Z,-4.81
2022-12-18T05:04:30.411Z,-4.87
2022-12-18T05:05:31.590Z,-4.84
2022-12-18T05:06:31.553Z,-4.94
2022-12-18T05:07:31.462Z,-5.01
2022-12-18T05:08:32.070Z,-5
2022-12-18T05:09:32.681Z,-5.01
2022-12-18T05:10:38.680Z,-5
2022-12-18T05:11:33.611Z,-5.02
2022-12-18T05:12:34.489Z,-5.16
2022-12-18T05:13:35.787Z,-5.21
2022-12-18T05:14:35.776Z,-5.28
2022-12-18T05:15:36.245Z,-5.21
2022-12-18T05:16:36.880Z,-5.27
2022-12-18T05:17:37.357Z,-5.31
2022-12-18T05:18:37.847Z,-5.31
2022-12-18T05:19:37.750Z,-5.28
2022-12-18T05:20:37.835Z,-5.38
2022-12-18T05:21:38.475Z,-5.35
2022-12-18T05:22:38.943Z,-5.28
2022-12-18T05:23:40.428Z,-5.23
2022-12-18T05:24:39.377Z,-5.31
2022-12-18T05:25:40.004Z,-5.32
2022-12-18T05:26:42.063Z,-5.31
2022-12-18T05:27:41.974Z,-5.19
2022-12-18T05:28:41.896Z,-5.28
2022-12-18T05:29:43.338Z,-5.31
2022-12-18T05:30:43.819Z,-5.28
2022-12-18T05:31:45.702Z,-5.34
2022-12-18T05:32:45.075Z,-5.17
2022-12-18T05:33:46.149Z,-5.12
2022-12-18T05:34:46.075Z,-5.13
2022-12-18T05:35:47.279Z,-5.09
2022-12-18T05:36:47.485Z,-5.05
2022-12-18T05:37:49.027Z,-5.06
2022-12-18T05:38:48.849Z,-5.01
2022-12-18T05:39:48.760Z,-5.02
2022-12-18T05:40:48.585Z,-5.16
2022-12-18T05:41:50.153Z,-5.1
2022-12-18T05:42:50.358Z,-5.09
2022-12-18T05:43:50.196Z,-5.09
2022-12-18T05:44:51.611Z,-5.13
2022-12-18T05:45:51.893Z,-5.19
2022-12-18T05:46:52.551Z,-5.13
2022-12-18T05:47:52.633Z,-5.21
2022-12-18T05:48:53.588Z,-5.28
2022-12-18T05:49:53.768Z,-5.3
2022-12-18T05:50:54.568Z,-5.32
2022-12-18T05:51:55.183Z,-5.28
2022-12-18T05:52:56.268Z,-5.12
2022-12-18T05:53:57.213Z,-5.16
2022-12-18T05:54:57.146Z,-5.19
2022-12-18T05:55:57.760Z,-5.01
2022-12-18T05:56:58.133Z,-5.08
2022-12-18T05:57:58.879Z,-4.97
2022-12-18T05:58:58.780Z,-5
2022-12-18T05:59:59.623Z,-5.02
2022-12-18T06:00:59.838Z,-4.97
2022-12-18T06:02:01.062Z,-4.95
2022-12-18T06:03:00.608Z,-5.06
2022-12-18T06:04:01.324Z,-5.05
2022-12-18T06:05:01.624Z,-4.98
2022-12-18T06:06:01.532Z,-5.06
2022-12-18T06:07:02.513Z,-5.13
2022-12-18T06:08:02.844Z,-5.09
2022-12-18T06:09:03.693Z,-5.1
2022-12-18T06:10:04.104Z,-5.1
2022-12-18T06:11:04.936Z,-5.19
2022-12-18T06:12:05.843Z,-5.23
2022-12-18T06:13:05.448Z,-5.28
2022-12-18T06:14:06.770Z,-5.28
2022-12-18T06:15:07.886Z,-5.3
2022-12-18T06:16:08.515Z,-5.31
2022-12-18T06:17:09.017Z,-5.35
2022-12-18T06:18:09.499Z,-5.32
2022-12-18T06:19:10.408Z,-5.34
2022-12-18T06:20:10.597Z,-5.32
2022-12-18T06:21:11.069Z,-5.37
2022-12-18T06:22:11.962Z,-5.38
2022-12-18T06:23:12.577Z,-5.35
2022-12-18T06:24:13.054Z,-5.32
2022-12-18T06:25:13.675Z,-5.28
2022-12-18T06:26:13.570Z,-5.23
2022-12-18T06:27:14.096Z,-5.31
2022-12-18T06:28:16.869Z,-5.16
2022-12-18T06:29:16.357Z,-5.2
2022-12-18T06:30:16.844Z,-5.16
2022-12-18T06:31:17.104Z,-5.19
2022-12-18T06:32:17.766Z,-5.34
2022-12-18T06:33:18.121Z,-5.21
2022-12-18T06:34:19.063Z,-5.27
2022-12-18T06:35:21.351Z,-5.2
2022-12-18T06:36:20.508Z,-5.27
2022-12-18T06:37:20.711Z,-5.32
2022-12-18T06:38:20.897Z,-5.23
2022-12-18T06:39:21.530Z,-5.25
2022-12-18T06:40:23.173Z,-5.31
2022-12-18T06:41:23.281Z,-5.37
2022-12-18T06:42:24.701Z,-5.48
2022-12-18T06:43:24.627Z,-5.48
2022-12-18T06:44:25.814Z,-5.45
2022-12-18T06:45:27.203Z,-5.5
2022-12-18T06:46:27.290Z,-5.52
2022-12-18T06:47:27.711Z,-5.49
2022-12-18T06:48:28.626Z,-5.49
2022-12-18T06:49:35.816Z,-5.49
2022-12-18T06:50:30.698Z,-5.5
2022-12-18T06:51:30.657Z,-5.41
2022-12-18T06:52:30.991Z,-5.43
2022-12-18T06:53:31.937Z,-5.45
2022-12-18T06:54:32.442Z,-5.46
2022-12-18T06:55:32.633Z,-5.49
2022-12-18T06:56:32.984Z,-5.49
2022-12-18T06:57:33.622Z,-5.53
2022-12-18T06:58:34.104Z,-5.5
2022-12-18T06:59:34.906Z,-5.58
2022-12-18T07:00:35.376Z,-5.63
2022-12-18T07:01:36.089Z,-5.5
2022-12-18T07:02:36.389Z,-5.49
2022-12-18T07:03:37.989Z,-5.41
2022-12-18T07:04:37.262Z,-5.43
2022-12-18T07:05:37.602Z,-5.48
2022-12-18T07:06:39.086Z,-5.38
2022-12-18T07:07:39.285Z,-5.34
2022-12-18T07:08:40.480Z,-5.27
2022-12-18T07:09:40.367Z,-5.35
2022-12-18T07:10:48.286Z,-5.28
2022-12-18T07:11:41.770Z,-5.23
2022-12-18T07:12:41.977Z,-5.21
2022-12-18T07:13:43.924Z,-5.09
2022-12-18T07:14:44.172Z,-5.2
2022-12-18T07:15:45.919Z,-5.13
2022-12-18T07:16:45.125Z,-5
2022-12-18T07:17:45.249Z,-5.01
2022-12-18T07:18:45.868Z,-5.05
2022-12-18T07:19:46.784Z,-5.02
2022-12-18T07:20:48.017Z,-5.05
2022-12-18T07:21:47.536Z,-5.02
2022-12-18T07:22:56.191Z,-4.88
2022-12-18T07:23:49.439Z,-4.91
2022-12-18T07:24:49.747Z,-4.98
2022-12-18T07:25:51.843Z,-4.87
2022-12-18T07:26:51.165Z,-4.92
2022-12-18T07:27:52.356Z,-4.92
2022-12-18T07:28:53.111Z,-4.9
2022-12-18T07:29:54.054Z,-4.9
2022-12-18T07:30:56.253Z,-4.94
2022-12-18T07:31:54.805Z,-4.9
2022-12-18T07:32:55.215Z,-4.95
2022-12-18T07:33:55.231Z,-5.05
2022-12-18T07:34:55.849Z,-5
2022-12-18T07:35:56.758Z,-5.09
2022-12-18T07:36:56.971Z,-5.1
2022-12-18T07:37:57.156Z,-5.12
2022-12-18T07:38:57.066Z,-5.16
2022-12-18T07:39:58.247Z,-5.19
2022-12-18T07:40:59.158Z,-5.27
2022-12-18T07:42:00.278Z,-5.23
2022-12-18T07:43:00.483Z,-5.28
2022-12-18T07:44:00.964Z,-5.17
2022-12-18T07:45:01.184Z,-5.17
2022-12-18T07:46:02.784Z,-5.12
2022-12-18T07:47:09.086Z,-5.16
2022-12-18T07:48:02.858Z,-5.02
2022-12-18T07:49:03.893Z,-5.06
2022-12-18T07:50:05.152Z,-4.88
2022-12-18T07:51:05.363Z,-4.92
2022-12-18T07:52:05.535Z,-4.91
2022-12-18T07:53:05.433Z,-4.94
2022-12-18T07:54:06.363Z,-4.87
2022-12-18T07:55:08.037Z,-4.88
2022-12-18T07:56:32.422Z,-4.79
2022-12-18T07:57:48.726Z,-4.8
2022-12-18T07:58:12.282Z,-4.71
2022-12-18T07:59:12.199Z,-4.7
2022-12-18T08:00:13.115Z,-4.73
2022-12-18T08:01:14.569Z,-4.69
2022-12-18T08:02:15.206Z,-4.71
2022-12-18T08:03:14.772Z,-4.81
2022-12-18T08:04:15.228Z,-4.76
2022-12-18T08:05:15.155Z,-4.84
2022-12-18T08:06:16.343Z,-4.9
2022-12-18T08:07:16.696Z,-5.01
2022-12-18T08:08:16.360Z,-5.02
2022-12-18T08:09:16.969Z,-5.01
2022-12-18T08:10:18.162Z,-4.97
2022-12-18T08:11:19.873Z,-5.02
2022-12-18T08:12:20.100Z,-5
2022-12-18T08:13:20.439Z,-5.08
2022-12-18T08:14:21.628Z,-4.98
2022-12-18T08:15:22.254Z,-5.01
2022-12-18T08:16:23.752Z,-4.95
2022-12-18T08:17:24.284Z,-5.08
2022-12-18T08:18:25.108Z,-4.92
2022-12-18T08:19:25.557Z,-5.06
2022-12-18T08:20:27.302Z,-4.97
2022-12-18T08:21:27.985Z,-5.05
2022-12-18T08:22:28.520Z,-5
2022-12-18T08:23:29.475Z,-4.9
2022-12-18T08:24:29.402Z,-4.92
2022-12-18T08:25:30.608Z,-4.9
2022-12-18T08:26:31.094Z,-4.77
2022-12-18T08:27:36.037Z,-4.69
2022-12-18T08:28:32.226Z,-4.62
2022-12-18T08:29:32.547Z,-4.63
2022-12-18T08:30:34.076Z,-4.63
2022-12-18T08:31:34.943Z,-4.73
2022-12-18T08:32:35.007Z,-4.65
2022-12-18T08:33:35.338Z,-4.7
2022-12-18T08:34:35.910Z,-4.81
2022-12-18T08:35:46.507Z,-4.8
2022-12-18T08:36:36.716Z,-4.83
2022-12-18T08:37:37.625Z,-4.77
2022-12-18T08:38:38.133Z,-4.74
2022-12-18T08:39:38.339Z,-4.71
2022-12-18T08:40:38.823Z,-4.62
2022-12-18T08:41:40.210Z,-4.61
2022-12-18T08:42:39.721Z,-4.62
2022-12-18T08:43:41.843Z,-4.58
2022-12-18T08:44:41.150Z,-4.45
2022-12-18T08:45:41.455Z,-4.38
2022-12-18T08:46:42.681Z,-4.3
2022-12-18T08:47:43.273Z,-4.24
2022-12-18T08:48:43.286Z,-4.24
2022-12-18T08:49:44.325Z,-4.19
2022-12-18T08:50:43.939Z,-4.17
2022-12-18T08:51:44.836Z,-4.14
2022-12-18T08:52:45.539Z,-4.12
2022-12-18T08:53:46.659Z,-4.12
2022-12-18T08:54:46.317Z,-4.14
2022-12-18T08:55:51.093Z,-4.13
2022-12-18T08:56:46.991Z,-4.2
2022-12-18T08:57:47.478Z,-4.17
2022-12-18T08:58:48.105Z,-4.14
2022-12-18T08:59:48.266Z,-4.17
2022-12-18T09:00:48.474Z,-4.13
2022-12-18T09:01:49.819Z,-4.05
2022-12-18T09:02:50.759Z,-4.02
2022-12-18T09:03:50.367Z,-4.05
2022-12-18T09:04:57.924Z,-4.01
2022-12-18T09:05:50.604Z,-4.01
2022-12-18T09:06:51.523Z,-4.01
2022-12-18T09:07:52.705Z,-3.95
2022-12-18T09:08:52.617Z,-3.95
2022-12-18T09:09:53.011Z,-3.91
2022-12-18T09:10:53.200Z,-3.78
2022-12-18T09:11:53.392Z,-3.75
2022-12-18T09:12:53.920Z,-3.83
2022-12-18T09:13:55.111Z,-3.81
2022-12-18T09:14:55.241Z,-3.75
2022-12-18T09:15:55.862Z,-3.71
2022-12-18T09:16:57.130Z,-3.75
2022-12-18T09:17:57.600Z,-3.65
2022-12-18T09:18:57.765Z,-3.59
2022-12-18T09:19:58.504Z,-3.64
2022-12-18T09:20:59.389Z,-3.64
2022-12-18T09:21:59.706Z,-3.5
2022-12-18T09:23:00.520Z,-3.46
2022-12-18T09:24:00.850Z,-3.46
2022-12-18T09:25:01.851Z,-3.43
2022-12-18T09:26:01.472Z,-3.44
2022-12-18T09:27:03.550Z,-3.47
2022-12-18T09:28:04.032Z,-3.46
2022-12-18T09:29:04.222Z,-3.47
2022-12-18T09:30:05.067Z,-3.48
2022-12-18T09:31:05.422Z,-3.56
2022-12-18T09:32:06.587Z,-3.64
2022-12-18T09:33:08.004Z,-3.56
2022-12-18T09:34:08.175Z,-3.59
2022-12-18T09:35:08.477Z,-3.46
2022-12-18T09:36:09.404Z,-3.41
2022-12-18T09:37:10.048Z,-3.41
2022-12-18T09:38:11.240Z,-3.41
2022-12-18T09:39:14.456Z,-3.44
2022-12-18T09:40:12.010Z,-3.32
2022-12-18T09:41:13.048Z,-3.43
2022-12-18T09:42:13.378Z,-3.3
2022-12-18T09:43:15.635Z,-3.33
2022-12-18T09:44:14.976Z,-3.3
2022-12-18T09:45:15.036Z,-3.3
2022-12-18T09:46:15.774Z,-3.36
2022-12-18T09:47:16.436Z,-3.32
2022-12-18T09:48:16.476Z,-3.33
2022-12-18T09:49:16.945Z,-3.32
2022-12-18T09:50:22.918Z,-3.43
2022-12-18T09:51:17.833Z,-3.43
2022-12-18T09:52:18.452Z,-3.46
2022-12-18T09:53:19.561Z,-3.44
2022-12-18T09:54:20.056Z,-3.44
2022-12-18T09:55:19.753Z,-3.44
2022-12-18T09:56:20.876Z,-3.36
2022-12-18T09:57:21.363Z,-3.27
2022-12-18T09:58:21.859Z,-3.41
2022-12-18T09:59:21.766Z,-3.29
2022-12-18T10:00:22.305Z,-3.32
2022-12-18T10:01:23.434Z,-3.3
2022-12-18T10:02:24.970Z,-3.3
2022-12-18T10:03:30.155Z,-3.4
2022-12-18T10:04:31.371Z,-3.4
2022-12-18T10:05:25.406Z,-3.43
2022-12-18T10:06:26.031Z,-3.23
2022-12-18T10:07:26.352Z,-3.32
2022-12-18T10:08:27.262Z,-3.32
2022-12-18T10:09:27.372Z,-3.27
2022-12-18T10:10:28.270Z,-3.3
2022-12-18T10:11:29.484Z,-3.27
2022-12-18T10:12:29.972Z,-3.29
2022-12-18T10:13:31.158Z,-3.36
2022-12-18T10:14:31.359Z,-3.19
2022-12-18T10:15:32.138Z,-3.25
2022-12-18T10:16:32.639Z,-3.29
2022-12-18T10:17:33.916Z,-3.36
2022-12-18T10:18:35.484Z,-3.25
2022-12-18T10:19:35.386Z,-3.37
2022-12-18T10:20:36.544Z,-3.43
2022-12-18T10:21:36.875Z,-3.37
2022-12-18T10:22:37.790Z,-3.47
2022-12-18T10:23:38.173Z,-3.53
2022-12-18T10:24:38.355Z,-3.56
2022-12-18T10:25:38.726Z,-3.43
2022-12-18T10:26:39.919Z,-3.44
2022-12-18T10:27:41.104Z,-3.37
2022-12-18T10:28:42.561Z,-3.33
2022-12-18T10:29:41.510Z,-3.27
2022-12-18T10:30:42.670Z,-3.25
2022-12-18T10:31:43.097Z,-3.2
2022-12-18T10:32:45.240Z,-3.14
2022-12-18T10:33:44.064Z,-3.14
2022-12-18T10:34:45.045Z,-3.14
2022-12-18T10:35:46.006Z,-3.07
2022-12-18T10:36:45.731Z,-2.98
2022-12-18T10:37:47.633Z,-3.01
2022-12-18T10:38:48.202Z,-3.07
2022-12-18T10:39:47.575Z,-3.05
2022-12-18T10:40:48.495Z,-3.08
2022-12-18T10:41:48.117Z,-3.12
2022-12-18T10:42:49.889Z,-3.19
2022-12-18T10:43:50.291Z,-3.2
2022-12-18T10:44:50.652Z,-3.22
2022-12-18T10:45:51.562Z,-3.19
2022-12-18T10:46:52.416Z,-3.25
2022-12-18T10:47:58.590Z,-3.22
2022-12-18T10:48:53.917Z,-3.19
2022-12-18T10:49:54.224Z,-3.29
2022-12-18T10:51:16.455Z,-3.3
2022-12-18T10:51:54.645Z,-3.27
2022-12-18T10:52:55.659Z,-3.41
2022-12-18T10:53:57.125Z,-3.41
2022-12-18T10:54:57.213Z,-3.33
2022-12-18T10:55:58.170Z,-3.41
2022-12-18T10:56:58.362Z,-3.26
2022-12-18T10:57:58.556Z,-3.37
2022-12-18T10:58:59.048Z,-3.3
2022-12-18T11:00:00.057Z,-3.29
2022-12-18T11:01:00.681Z,-3.27
2022-12-18T11:02:01.023Z,-3.27
2022-12-18T11:03:03.038Z,-3.27
2022-12-18T11:04:07.373Z,-3.25
2022-12-18T11:05:02.680Z,-3.27
2022-12-18T11:06:03.705Z,-3.22
2022-12-18T11:07:04.202Z,-3.17
2022-12-18T11:08:04.507Z,-3.17
2022-12-18T11:09:13.418Z,-3.01
2022-12-18T11:10:05.449Z,-3.07
2022-12-18T11:11:05.661Z,-2.99
2022-12-18T11:12:06.274Z,-2.93
2022-12-18T11:13:08.796Z,-2.94
2022-12-18T11:14:07.880Z,-2.89
2022-12-18T11:15:08.755Z,-2.94
2022-12-18T11:16:09.237Z,-2.94
2022-12-18T11:17:39.866Z,-2.83
2022-12-18T11:18:12.066Z,-2.83
2022-12-18T11:19:10.803Z,-2.7
2022-12-18T11:20:11.382Z,-2.72
2022-12-18T11:21:12.183Z,-2.75
2022-12-18T11:22:12.668Z,-2.8
2022-12-18T11:23:12.695Z,-2.75
2022-12-18T11:24:13.080Z,-2.78
2022-12-18T11:25:38.862Z,-2.78
2022-12-18T11:26:14.782Z,-2.84
2022-12-18T11:27:15.094Z,-2.84
2022-12-18T11:28:16.312Z,-2.83
2022-12-18T11:29:16.928Z,-2.81
2022-12-18T11:30:17.076Z,-2.78
2022-12-18T11:31:17.122Z,-2.8
2022-12-18T11:32:17.164Z,-2.76
2022-12-18T11:33:18.181Z,-2.7
2022-12-18T11:34:36.995Z,-2.58
2022-12-18T11:35:37.420Z,-2.52
2022-12-18T11:36:37.717Z,-2.39
2022-12-18T11:37:37.520Z,-2.29
2022-12-18T11:38:38.230Z,-2.22
2022-12-18T11:39:38.508Z,-2.2
2022-12-18T11:40:46.410Z,-2.13
2022-12-18T11:41:39.624Z,-2.13
2022-12-18T11:42:40.839Z,-2.13
2022-12-18T11:43:41.175Z,-2.04
2022-12-18T11:44:40.718Z,-2.08
2022-12-18T11:45:42.031Z,-2.07
2022-12-18T11:46:42.843Z,-2.11
2022-12-18T11:47:43.706Z,-2.14
2022-12-18T11:48:45.644Z,-2.26
2022-12-18T11:49:45.669Z,-2.1
2022-12-18T11:50:45.979Z,-2.11
2022-12-18T11:51:52.112Z,-2.14
2022-12-18T11:52:54.389Z,-1.99
2022-12-18T11:53:48.027Z,-1.89
2022-12-18T11:54:48.717Z,-1.72
2022-12-18T11:55:49.334Z,-1.64
2022-12-18T11:56:49.957Z,-1.53
2022-12-18T11:57:50.424Z,-1.4
2022-12-18T11:58:50.587Z,-1.3
2022-12-18T11:59:51.503Z,-1.27
2022-12-18T12:00:52.650Z,-1.21
2022-12-18T12:01:52.515Z,-1.21
2022-12-18T12:02:53.508Z,-1.17
2022-12-18T12:03:53.985Z,-1.11
2022-12-18T12:04:53.873Z,-1.14
2022-12-18T12:05:54.186Z,-1.17
2022-12-18T12:07:03.184Z,-1.14
2022-12-18T12:07:55.928Z,-1.03
2022-12-18T12:08:56.828Z,-0.96
2022-12-18T12:09:57.874Z,-0.94
2022-12-18T12:10:58.783Z,-0.96
2022-12-18T12:11:59.747Z,-1.04
2022-12-18T12:12:59.965Z,-1.09
2022-12-18T12:13:59.610Z,-1.12
2022-12-18T12:15:01.823Z,-1.29
2022-12-18T12:16:00.937Z,-1.19
2022-12-18T12:17:00.729Z,-1.11
2022-12-18T12:18:02.095Z,-0.94
2022-12-18T12:19:02.659Z,-0.87
2022-12-18T12:20:03.402Z,-0.93
2022-12-18T12:21:04.137Z,-0.89
2022-12-18T12:22:05.094Z,-0.94
2022-12-18T12:23:05.412Z,-0.97
2022-12-18T12:24:05.600Z,-0.94
2022-12-18T12:25:05.814Z,-0.94
2022-12-18T12:26:06.058Z,-0.99
2022-12-18T12:27:07.664Z,-0.97
2022-12-18T12:28:07.072Z,-0.96
2022-12-18T12:29:11.087Z,-1.03
2022-12-18T12:30:10.833Z,-1.14
2022-12-18T12:31:08.198Z,-1.07
2022-12-18T12:32:08.571Z,-1.11
2022-12-18T12:33:09.196Z,-1.19
2022-12-18T12:34:12.492Z,-1.04
2022-12-18T12:35:15.808Z,-1.04
2022-12-18T12:36:13.118Z,-0.94
2022-12-18T12:37:13.740Z,-0.97
2022-12-18T12:38:15.041Z,-0.97
2022-12-18T12:39:17.216Z,-0.93
2022-12-18T12:41:03.611Z,-0.93
2022-12-18T12:41:21.079Z,-0.93
2022-12-18T12:42:21.975Z,-0.97
2022-12-18T12:43:23.071Z,-0.91
2022-12-18T12:44:23.404Z,-0.93
2022-12-18T12:45:23.767Z,-0.94
2022-12-18T12:46:24.401Z,-0.97
2022-12-18T12:47:23.713Z,-1.03
2022-12-18T12:48:24.324Z,-1.03
2022-12-18T12:49:24.642Z,-1.01
2022-12-18T12:50:24.837Z,-0.99
2022-12-18T12:51:26.344Z,-1.03
2022-12-18T12:52:26.953Z,-1.14
2022-12-18T12:53:27.912Z,-1.12
2022-12-18T12:54:28.609Z,-1.11
2022-12-18T12:55:30.187Z,-1.11
2022-12-18T12:56:30.613Z,-1.17
2022-12-18T12:57:30.204Z,-1.03
2022-12-18T12:58:31.805Z,-0.94
2022-12-18T12:59:32.421Z,-0.93
2022-12-18T13:00:32.803Z,-0.78
2022-12-18T13:01:34.513Z,-0.64
2022-12-18T13:02:34.858Z,-0.75
2022-12-18T13:03:35.081Z,-0.8
2022-12-18T13:04:36.100Z,-0.69